Portada
METAR-TAF:

METAR-TAF

Aeroports :

Ufà, Rússia

latitud: 54-43-48N, longitud: 055-55-48E, altitud: 137 m

Observació

L'informe es va fer fa 16 minuts, a les 08:00 UTC
Vent 8 kt del Sud/Sud-Oest, variant entre Sud/Sud-Est i Sud-Oest
Temperatura 9°C
Humitat 49%
Pressió 1017 hPa
Visibilitat 10 km o més
sense núvols per sota de 1500 mi sense presència de cumulonimbus.

METAR: UWUU 300800Z 20004MPS 160V230 CAVOK 09/M01 Q1017 R14R/0///60 NOSIG

Hora: 13:16 (08:16 UTC)

Pronòstic

L'informe es va fer fa 3 hores i 25 minuts, a les 04:51 UTC
Pronòstic vàlid del 30 a les 06 UTC al 31 a les 06 UTC
Vent 16 kt del Sud/Sud-Oest amb ràfegues de 27 kt
Visibilitat 10 km o més
sense núvols per sota de 1500 mi sense presència de cumulonimbus.
Temporalment
l' 30 a les 06 UTC al 31 a les 06 UTC
Vent 10 kt del Sud/Sud-Est amb ràfegues de 19 kt

TAF: UWUU 300451Z 3006/3106 20008G14MPS CAVOK TX10/3010Z TN01/3103Z TEMPO 3006/3106 16005G10MPS

Observacions i pronòstics meteorològics de més de 4000 aeroports (METAR i TAF).

Les estacions disponibles són els punts grocs i vermells al mapa.

Posi el ratolí al punt desitjat per veure el nom de l'estació.

Feu clic per veure les observacions i els pronòstics meteorològics.

Per canviar el mapa: feu clic els botons verds amb una creu de color negre per apropar; al botó verd amb un guió per allunyar la imatge; o en les fletxes verdes per a mapes adjacents.


METAR-TAF: